sensor_id;sensor_type;location;lat;lon;timestamp;pressure;altitude;pressure_sealevel;temperature;humidity
71105;BME280;58760;48.716;8.962;2023-03-13T00:01:24;96014.53;;;6.86;84.31
71105;BME280;58760;48.716;8.962;2023-03-13T00:03:50;96005.00;;;6.93;83.99
71105;BME280;58760;48.716;8.962;2023-03-13T00:06:16;95999.88;;;7.00;83.39
71105;BME280;58760;48.716;8.962;2023-03-13T00:08:42;95999.56;;;7.03;83.51
71105;BME280;58760;48.716;8.962;2023-03-13T00:11:10;96003.38;;;7.08;83.02
71105;BME280;58760;48.716;8.962;2023-03-13T00:13:36;96007.81;;;7.08;82.93
71105;BME280;58760;48.716;8.962;2023-03-13T00:16:04;95994.97;;;7.05;83.16
71105;BME280;58760;48.716;8.962;2023-03-13T00:18:30;95995.28;;;6.94;83.92
71105;BME280;58760;48.716;8.962;2023-03-13T00:21:06;96002.84;;;6.89;84.45
71105;BME280;58760;48.716;8.962;2023-03-13T00:23:33;95999.06;;;6.91;84.25
71105;BME280;58760;48.716;8.962;2023-03-13T00:26:01;96003.69;;;6.97;83.92
71105;BME280;58760;48.716;8.962;2023-03-13T00:28:30;96001.72;;;7.07;82.93
71105;BME280;58760;48.716;8.962;2023-03-13T00:33:37;96005.34;;;7.06;82.98
71105;BME280;58760;48.716;8.962;2023-03-13T00:36:05;95993.47;;;7.02;83.58
71105;BME280;58760;48.716;8.962;2023-03-13T00:38:32;95998.59;;;6.96;83.74
71105;BME280;58760;48.716;8.962;2023-03-13T00:41:00;95991.16;;;6.91;84.52
71105;BME280;58760;48.716;8.962;2023-03-13T00:43:26;95987.19;;;6.87;84.69
71105;BME280;58760;48.716;8.962;2023-03-13T00:45:52;95989.16;;;6.93;84.10
71105;BME280;58760;48.716;8.962;2023-03-13T00:48:17;95988.84;;;6.96;83.96
71105;BME280;58760;48.716;8.962;2023-03-13T00:50:42;95983.75;;;6.95;83.95
71105;BME280;58760;48.716;8.962;2023-03-13T00:53:08;95977.00;;;6.92;84.26
71105;BME280;58760;48.716;8.962;2023-03-13T00:55:33;95980.59;;;6.91;84.31
71105;BME280;58760;48.716;8.962;2023-03-13T00:57:58;95974.50;;;6.91;84.23
71105;BME280;58760;48.716;8.962;2023-03-13T01:00:24;95975.34;;;6.91;84.50
71105;BME280;58760;48.716;8.962;2023-03-13T01:02:49;95976.47;;;6.97;84.11
71105;BME280;58760;48.716;8.962;2023-03-13T01:05:14;95968.72;;;7.03;83.89
71105;BME280;58760;48.716;8.962;2023-03-13T01:07:40;95961.50;;;7.05;83.50
71105;BME280;58760;48.716;8.962;2023-03-13T01:10:06;95957.84;;;7.06;83.37
71105;BME280;58760;48.716;8.962;2023-03-13T01:12:31;95955.72;;;7.10;83.50
71105;BME280;58760;48.716;8.962;2023-03-13T01:14:56;95953.72;;;7.28;82.61
71105;BME280;58760;48.716;8.962;2023-03-13T01:17:22;95951.25;;;7.34;81.77
71105;BME280;58760;48.716;8.962;2023-03-13T01:19:47;95949.25;;;7.36;82.08
71105;BME280;58760;48.716;8.962;2023-03-13T01:22:12;95930.78;;;7.28;81.55
71105;BME280;58760;48.716;8.962;2023-03-13T01:24:38;95929.50;;;7.24;82.26
71105;BME280;58760;48.716;8.962;2023-03-13T01:27:03;95931.47;;;7.22;82.17
71105;BME280;58760;48.716;8.962;2023-03-13T01:29:28;95921.56;;;7.24;82.38
71105;BME280;58760;48.716;8.962;2023-03-13T01:31:54;95914.31;;;7.26;81.81
71105;BME280;58760;48.716;8.962;2023-03-13T01:34:19;95909.66;;;7.28;81.87
71105;BME280;58760;48.716;8.962;2023-03-13T01:36:44;95912.31;;;7.36;81.67
71105;BME280;58760;48.716;8.962;2023-03-13T01:39:14;95900.44;;;7.32;81.45
71105;BME280;58760;48.716;8.962;2023-03-13T01:41:40;95897.28;;;7.45;81.45
71105;BME280;58760;48.716;8.962;2023-03-13T01:44:19;95896.03;;;7.72;80.59
71105;BME280;58760;48.716;8.962;2023-03-13T01:46:45;95889.09;;;7.71;80.61
71105;BME280;58760;48.716;8.962;2023-03-13T01:49:19;95878.88;;;7.68;80.86
71105;BME280;58760;48.716;8.962;2023-03-13T01:51:57;95876.16;;;7.84;80.87
71105;BME280;58760;48.716;8.962;2023-03-13T01:57:02;95871.22;;;7.81;80.38
71105;BME280;58760;48.716;8.962;2023-03-13T01:59:38;95863.72;;;7.70;80.58
71105;BME280;58760;48.716;8.962;2023-03-13T02:02:05;95867.69;;;7.58;81.24
71105;BME280;58760;48.716;8.962;2023-03-13T02:04:35;95851.34;;;7.62;81.20
71105;BME280;58760;48.716;8.962;2023-03-13T02:07:05;95856.47;;;7.95;80.31
71105;BME280;58760;48.716;8.962;2023-03-13T02:09:34;95861.41;;;7.67;80.84
71105;BME280;58760;48.716;8.962;2023-03-13T02:12:07;95858.25;;;7.71;80.99
71105;BME280;58760;48.716;8.962;2023-03-13T02:14:36;95857.72;;;8.07;80.00
71105;BME280;58760;48.716;8.962;2023-03-13T02:17:03;95849.88;;;7.99;79.94
71105;BME280;58760;48.716;8.962;2023-03-13T02:19:39;95851.19;;;7.95;79.95
71105;BME280;58760;48.716;8.962;2023-03-13T02:22:34;95849.94;;;8.13;79.74
71105;BME280;58760;48.716;8.962;2023-03-13T02:27:55;95839.47;;;8.28;79.18
71105;BME280;58760;48.716;8.962;2023-03-13T02:30:22;95832.38;;;8.20;79.32
71105;BME280;58760;48.716;8.962;2023-03-13T02:32:48;95841.94;;;8.29;79.32
71105;BME280;58760;48.716;8.962;2023-03-13T02:35:18;95838.16;;;8.24;79.58
71105;BME280;58760;48.716;8.962;2023-03-13T02:37:47;95820.91;;;8.36;79.21
71105;BME280;58760;48.716;8.962;2023-03-13T02:40:17;95819.47;;;8.25;78.90
71105;BME280;58760;48.716;8.962;2023-03-13T02:42:46;95809.06;;;8.32;79.08
71105;BME280;58760;48.716;8.962;2023-03-13T02:45:14;95802.81;;;8.48;78.97
71105;BME280;58760;48.716;8.962;2023-03-13T02:47:39;95801.53;;;8.44;79.16
71105;BME280;58760;48.716;8.962;2023-03-13T02:50:05;95794.00;;;8.32;79.51
71105;BME280;58760;48.716;8.962;2023-03-13T02:52:35;95787.47;;;8.43;79.87
71105;BME280;58760;48.716;8.962;2023-03-13T02:55:10;95786.03;;;8.40;79.91
71105;BME280;58760;48.716;8.962;2023-03-13T02:57:38;95776.06;;;8.43;79.72
71105;BME280;58760;48.716;8.962;2023-03-13T03:00:05;95781.59;;;8.56;79.40
71105;BME280;58760;48.716;8.962;2023-03-13T03:02:31;95768.38;;;8.56;79.42
71105;BME280;58760;48.716;8.962;2023-03-13T03:04:56;95760.63;;;8.54;79.61
71105;BME280;58760;48.716;8.962;2023-03-13T03:07:21;95754.25;;;8.63;79.41
71105;BME280;58760;48.716;8.962;2023-03-13T03:09:47;95756.97;;;8.55;79.80
71105;BME280;58760;48.716;8.962;2023-03-13T03:12:12;95745.59;;;8.55;80.25
71105;BME280;58760;48.716;8.962;2023-03-13T03:14:37;95736.28;;;8.59;80.47
71105;BME280;58760;48.716;8.962;2023-03-13T03:17:03;95735.66;;;8.71;80.27
71105;BME280;58760;48.716;8.962;2023-03-13T03:19:29;95733.19;;;8.70;80.83
71105;BME280;58760;48.716;8.962;2023-03-13T03:21:54;95740.41;;;8.76;80.77
71105;BME280;58760;48.716;8.962;2023-03-13T03:24:19;95730.34;;;8.71;81.21
71105;BME280;58760;48.716;8.962;2023-03-13T03:26:45;95742.03;;;8.62;81.42
71105;BME280;58760;48.716;8.962;2023-03-13T03:29:11;95740.09;;;8.56;81.65
71105;BME280;58760;48.716;8.962;2023-03-13T03:31:36;95737.19;;;8.66;82.44
71105;BME280;58760;48.716;8.962;2023-03-13T03:34:01;95736.47;;;8.72;82.23
71105;BME280;58760;48.716;8.962;2023-03-13T03:36:28;95738.56;;;8.62;82.60
71105;BME280;58760;48.716;8.962;2023-03-13T03:38:53;95749.44;;;8.81;82.55
71105;BME280;58760;48.716;8.962;2023-03-13T03:41:18;95741.78;;;9.01;82.19
71105;BME280;58760;48.716;8.962;2023-03-13T03:43:44;95742.78;;;9.15;81.57
71105;BME280;58760;48.716;8.962;2023-03-13T03:46:11;95743.78;;;9.14;82.05
71105;BME280;58760;48.716;8.962;2023-03-13T03:48:37;95747.81;;;9.24;82.98
71105;BME280;58760;48.716;8.962;2023-03-13T03:51:02;95753.25;;;9.37;83.35
71105;BME280;58760;48.716;8.962;2023-03-13T03:53:28;95753.72;;;9.56;83.96
71105;BME280;58760;48.716;8.962;2023-03-13T03:55:53;95757.91;;;9.86;83.26
71105;BME280;58760;48.716;8.962;2023-03-13T03:58:19;95742.53;;;9.96;82.62
71105;BME280;58760;48.716;8.962;2023-03-13T04:00:46;95750.38;;;10.04;82.57
71105;BME280;58760;48.716;8.962;2023-03-13T04:03:12;95752.53;;;10.15;82.23
71105;BME280;58760;48.716;8.962;2023-03-13T04:05:38;95735.81;;;10.15;82.61
71105;BME280;58760;48.716;8.962;2023-03-13T04:08:04;95744.84;;;10.20;82.39
71105;BME280;58760;48.716;8.962;2023-03-13T04:10:30;95740.25;;;10.29;82.63
71105;BME280;58760;48.716;8.962;2023-03-13T04:12:55;95734.75;;;10.30;82.60
71105;BME280;58760;48.716;8.962;2023-03-13T04:15:21;95728.69;;;10.36;82.59
71105;BME280;58760;48.716;8.962;2023-03-13T04:17:46;95737.78;;;10.27;83.33
71105;BME280;58760;48.716;8.962;2023-03-13T04:20:11;95723.72;;;10.27;83.52
71105;BME280;58760;48.716;8.962;2023-03-13T04:22:39;95722.22;;;10.24;83.81
71105;BME280;58760;48.716;8.962;2023-03-13T04:25:05;95723.31;;;10.30;83.53
71105;BME280;58760;48.716;8.962;2023-03-13T04:27:32;95730.06;;;10.32;83.48
71105;BME280;58760;48.716;8.962;2023-03-13T04:29:57;95730.19;;;10.24;84.13
71105;BME280;58760;48.716;8.962;2023-03-13T04:32:23;95724.16;;;10.30;83.94
71105;BME280;58760;48.716;8.962;2023-03-13T04:34:48;95722.72;;;10.34;83.94
71105;BME280;58760;48.716;8.962;2023-03-13T04:37:13;95718.03;;;10.30;84.35
71105;BME280;58760;48.716;8.962;2023-03-13T04:39:39;95711.50;;;10.32;84.46
71105;BME280;58760;48.716;8.962;2023-03-13T04:42:04;95711.69;;;10.31;84.52
71105;BME280;58760;48.716;8.962;2023-03-13T04:44:29;95706.50;;;10.44;83.55
71105;BME280;58760;48.716;8.962;2023-03-13T04:46:55;95712.38;;;10.39;83.56
71105;BME280;58760;48.716;8.962;2023-03-13T04:49:20;95710.94;;;10.37;83.84
71105;BME280;58760;48.716;8.962;2023-03-13T04:51:45;95709.91;;;10.38;83.52
71105;BME280;58760;48.716;8.962;2023-03-13T04:54:11;95705.50;;;10.45;82.88
71105;BME280;58760;48.716;8.962;2023-03-13T04:56:37;95704.28;;;10.47;83.02
71105;BME280;58760;48.716;8.962;2023-03-13T04:59:03;95706.38;;;10.52;82.72
71105;BME280;58760;48.716;8.962;2023-03-13T05:01:28;95716.16;;;10.52;82.61
71105;BME280;58760;48.716;8.962;2023-03-13T05:03:54;95715.72;;;10.48;82.78
71105;BME280;58760;48.716;8.962;2023-03-13T05:06:19;95711.28;;;10.55;82.33
71105;BME280;58760;48.716;8.962;2023-03-13T05:08:44;95695.31;;;10.48;82.51
71105;BME280;58760;48.716;8.962;2023-03-13T05:11:10;95698.84;;;10.56;82.25
71105;BME280;58760;48.716;8.962;2023-03-13T05:13:35;95705.38;;;10.53;82.48
71105;BME280;58760;48.716;8.962;2023-03-13T05:16:01;95722.78;;;10.62;82.02
71105;BME280;58760;48.716;8.962;2023-03-13T05:18:27;95707.25;;;10.59;82.54
71105;BME280;58760;48.716;8.962;2023-03-13T05:20:52;95696.56;;;10.53;82.36
71105;BME280;58760;48.716;8.962;2023-03-13T05:23:18;95703.38;;;10.62;81.99
71105;BME280;58760;48.716;8.962;2023-03-13T05:25:43;95707.63;;;10.56;82.39
71105;BME280;58760;48.716;8.962;2023-03-13T05:28:09;95702.38;;;10.63;81.97
71105;BME280;58760;48.716;8.962;2023-03-13T05:30:34;95707.91;;;10.68;81.75
71105;BME280;58760;48.716;8.962;2023-03-13T05:32:59;95712.22;;;10.69;81.94
71105;BME280;58760;48.716;8.962;2023-03-13T05:35:25;95710.56;;;10.68;81.98
71105;BME280;58760;48.716;8.962;2023-03-13T05:37:50;95699.94;;;10.68;81.86
71105;BME280;58760;48.716;8.962;2023-03-13T05:40:15;95695.06;;;10.71;81.82
71105;BME280;58760;48.716;8.962;2023-03-13T05:42:41;95700.72;;;10.62;82.29
71105;BME280;58760;48.716;8.962;2023-03-13T05:45:07;95701.00;;;10.73;81.90
71105;BME280;58760;48.716;8.962;2023-03-13T05:47:35;95708.56;;;10.76;81.55
71105;BME280;58760;48.716;8.962;2023-03-13T05:50:03;95713.47;;;10.73;81.58
71105;BME280;58760;48.716;8.962;2023-03-13T05:52:29;95689.59;;;10.73;81.90
71105;BME280;58760;48.716;8.962;2023-03-13T05:54:54;95689.94;;;10.70;82.12
71105;BME280;58760;48.716;8.962;2023-03-13T05:57:20;95688.81;;;10.79;82.00
71105;BME280;58760;48.716;8.962;2023-03-13T05:59:45;95675.03;;;10.62;83.01
71105;BME280;58760;48.716;8.962;2023-03-13T06:02:10;95678.72;;;10.68;82.91
71105;BME280;58760;48.716;8.962;2023-03-13T06:04:36;95677.72;;;10.69;82.76
71105;BME280;58760;48.716;8.962;2023-03-13T06:07:01;95674.22;;;10.68;82.83
71105;BME280;58760;48.716;8.962;2023-03-13T06:09:27;95676.69;;;10.70;82.88
71105;BME280;58760;48.716;8.962;2023-03-13T06:11:52;95679.59;;;10.75;82.76
71105;BME280;58760;48.716;8.962;2023-03-13T06:14:17;95683.69;;;10.77;82.89
71105;BME280;58760;48.716;8.962;2023-03-13T06:16:43;95688.53;;;10.74;82.74
71105;BME280;58760;48.716;8.962;2023-03-13T06:19:08;95688.16;;;10.77;83.06
71105;BME280;58760;48.716;8.962;2023-03-13T06:21:34;95691.84;;;10.76;83.34
71105;BME280;58760;48.716;8.962;2023-03-13T06:23:59;95688.16;;;10.77;83.32
71105;BME280;58760;48.716;8.962;2023-03-13T06:26:24;95689.41;;;10.81;83.35
71105;BME280;58760;48.716;8.962;2023-03-13T06:28:50;95687.34;;;10.76;83.59
71105;BME280;58760;48.716;8.962;2023-03-13T06:31:16;95685.06;;;10.73;83.78
71105;BME280;58760;48.716;8.962;2023-03-13T06:33:41;95689.03;;;10.84;83.78
71105;BME280;58760;48.716;8.962;2023-03-13T06:36:07;95687.75;;;10.80;83.81
71105;BME280;58760;48.716;8.962;2023-03-13T06:38:33;95689.84;;;10.84;83.95
71105;BME280;58760;48.716;8.962;2023-03-13T06:40:58;95679.66;;;10.88;83.72
71105;BME280;58760;48.716;8.962;2023-03-13T06:43:23;95672.31;;;10.90;83.61
71105;BME280;58760;48.716;8.962;2023-03-13T06:45:49;95679.66;;;10.88;83.83
71105;BME280;58760;48.716;8.962;2023-03-13T06:48:15;95692.06;;;10.81;84.11
71105;BME280;58760;48.716;8.962;2023-03-13T06:50:41;95696.03;;;10.91;83.79
71105;BME280;58760;48.716;8.962;2023-03-13T06:53:06;95699.06;;;10.88;84.19
71105;BME280;58760;48.716;8.962;2023-03-13T06:55:32;95701.72;;;10.88;84.15
71105;BME280;58760;48.716;8.962;2023-03-13T06:57:57;95702.16;;;10.92;84.02
71105;BME280;58760;48.716;8.962;2023-03-13T07:00:23;95696.84;;;10.92;83.83
71105;BME280;58760;48.716;8.962;2023-03-13T07:02:49;95705.81;;;10.91;84.25
71105;BME280;58760;48.716;8.962;2023-03-13T07:05:15;95705.03;;;10.97;83.94
71105;BME280;58760;48.716;8.962;2023-03-13T07:07:41;95709.75;;;11.01;84.00
71105;BME280;58760;48.716;8.962;2023-03-13T07:10:09;95704.03;;;10.98;84.09
71105;BME280;58760;48.716;8.962;2023-03-13T07:12:35;95704.69;;;11.07;83.90
71105;BME280;58760;48.716;8.962;2023-03-13T07:15:01;95705.88;;;11.04;83.98
71105;BME280;58760;48.716;8.962;2023-03-13T07:17:27;95722.69;;;11.11;83.44
71105;BME280;58760;48.716;8.962;2023-03-13T07:19:52;95706.75;;;11.11;84.36
71105;BME280;58760;48.716;8.962;2023-03-13T07:22:17;95705.09;;;11.10;84.17
71105;BME280;58760;48.716;8.962;2023-03-13T07:24:43;95704.28;;;11.10;84.50
71105;BME280;58760;48.716;8.962;2023-03-13T07:27:08;95701.06;;;11.14;84.46
71105;BME280;58760;48.716;8.962;2023-03-13T07:29:34;95686.72;;;11.09;84.41
71105;BME280;58760;48.716;8.962;2023-03-13T07:31:59;95699.41;;;11.13;84.52
71105;BME280;58760;48.716;8.962;2023-03-13T07:34:24;95690.44;;;11.14;85.08
71105;BME280;58760;48.716;8.962;2023-03-13T07:36:50;95694.94;;;11.20;84.54
71105;BME280;58760;48.716;8.962;2023-03-13T07:39:15;95689.25;;;11.23;84.37
71105;BME280;58760;48.716;8.962;2023-03-13T07:41:40;95684.09;;;11.22;84.53
71105;BME280;58760;48.716;8.962;2023-03-13T07:44:06;95668.59;;;11.25;84.42
71105;BME280;58760;48.716;8.962;2023-03-13T07:46:32;95662.91;;;11.28;84.56
71105;BME280;58760;48.716;8.962;2023-03-13T07:48:57;95661.50;;;11.32;83.99
71105;BME280;58760;48.716;8.962;2023-03-13T07:51:24;95654.97;;;11.41;83.28
71105;BME280;58760;48.716;8.962;2023-03-13T07:53:50;95647.66;;;11.50;82.85
71105;BME280;58760;48.716;8.962;2023-03-13T07:56:18;95656.06;;;11.53;83.13
71105;BME280;58760;48.716;8.962;2023-03-13T07:58:44;95645.44;;;11.53;83.32
71105;BME280;58760;48.716;8.962;2023-03-13T08:01:28;95645.22;;;11.62;82.86
71105;BME280;58760;48.716;8.962;2023-03-13T08:03:53;95636.72;;;11.73;82.81
71105;BME280;58760;48.716;8.962;2023-03-13T08:06:22;95625.69;;;11.76;82.21
71105;BME280;58760;48.716;8.962;2023-03-13T08:08:48;95608.50;;;11.85;82.27
71105;BME280;58760;48.716;8.962;2023-03-13T08:11:17;95604.84;;;11.99;81.89
71105;BME280;58760;48.716;8.962;2023-03-13T08:13:43;95594.00;;;12.07;82.36
71105;BME280;58760;48.716;8.962;2023-03-13T08:16:14;95592.34;;;12.26;81.07
71105;BME280;58760;48.716;8.962;2023-03-13T08:18:41;95609.94;;;12.40;79.50
71105;BME280;58760;48.716;8.962;2023-03-13T08:21:10;95600.09;;;12.53;80.12
71105;BME280;58760;48.716;8.962;2023-03-13T08:23:36;95600.91;;;12.61;78.47
71105;BME280;58760;48.716;8.962;2023-03-13T08:28:28;95619.69;;;12.72;77.64
71105;BME280;58760;48.716;8.962;2023-03-13T08:30:53;95619.91;;;12.77;76.87
71105;BME280;58760;48.716;8.962;2023-03-13T08:33:18;95621.53;;;12.78;76.85
71105;BME280;58760;48.716;8.962;2023-03-13T08:35:44;95620.31;;;12.81;76.15
71105;BME280;58760;48.716;8.962;2023-03-13T08:38:09;95617.84;;;12.79;75.54
71105;BME280;58760;48.716;8.962;2023-03-13T08:40:35;95628.50;;;12.79;75.95
71105;BME280;58760;48.716;8.962;2023-03-13T08:43:00;95619.47;;;12.87;75.56
71105;BME280;58760;48.716;8.962;2023-03-13T08:45:25;95622.91;;;13.00;75.09
71105;BME280;58760;48.716;8.962;2023-03-13T08:47:51;95641.16;;;13.10;74.92
71105;BME280;58760;48.716;8.962;2023-03-13T08:50:17;95647.03;;;13.19;74.06
71105;BME280;58760;48.716;8.962;2023-03-13T08:52:43;95643.59;;;13.12;74.30
71105;BME280;58760;48.716;8.962;2023-03-13T08:55:09;95639.00;;;13.32;74.10
71105;BME280;58760;48.716;8.962;2023-03-13T08:57:34;95647.41;;;13.29;73.69
71105;BME280;58760;48.716;8.962;2023-03-13T09:00:00;95645.63;;;13.16;74.13
71105;BME280;58760;48.716;8.962;2023-03-13T09:02:25;95629.63;;;13.23;74.74
71105;BME280;58760;48.716;8.962;2023-03-13T09:04:50;95638.81;;;13.27;74.24
71105;BME280;58760;48.716;8.962;2023-03-13T09:07:15;95638.22;;;13.25;74.27
71105;BME280;58760;48.716;8.962;2023-03-13T09:09:41;95637.63;;;13.16;73.85
71105;BME280;58760;48.716;8.962;2023-03-13T09:12:07;95637.03;;;13.01;74.74
71105;BME280;58760;48.716;8.962;2023-03-13T09:14:32;95637.84;;;13.01;74.89
71105;BME280;58760;48.716;8.962;2023-03-13T09:16:58;95635.16;;;13.08;74.62
71105;BME280;58760;48.716;8.962;2023-03-13T09:19:24;95635.78;;;13.23;74.44
71105;BME280;58760;48.716;8.962;2023-03-13T09:21:49;95629.16;;;13.32;74.28
71105;BME280;58760;48.716;8.962;2023-03-13T09:24:14;95632.03;;;13.31;73.94
71105;BME280;58760;48.716;8.962;2023-03-13T09:26:40;95635.69;;;13.36;74.15
71105;BME280;58760;48.716;8.962;2023-03-13T09:29:06;95642.66;;;13.37;74.08
71105;BME280;58760;48.716;8.962;2023-03-13T09:31:32;95639.56;;;13.40;74.26
71105;BME280;58760;48.716;8.962;2023-03-13T09:33:58;95634.44;;;13.45;74.27
71105;BME280;58760;48.716;8.962;2023-03-13T09:36:25;95640.22;;;13.36;73.55
71105;BME280;58760;48.716;8.962;2023-03-13T09:38:52;95654.28;;;13.49;73.75
71105;BME280;58760;48.716;8.962;2023-03-13T09:47:00;95659.63;;;13.87;72.14
71105;BME280;58760;48.716;8.962;2023-03-13T09:50:06;95663.47;;;13.98;71.04
71105;BME280;58760;48.716;8.962;2023-03-13T09:52:39;95631.66;;;13.96;71.06
71105;BME280;58760;48.716;8.962;2023-03-13T10:00:30;95631.13;;;14.12;70.92
71105;BME280;58760;48.716;8.962;2023-03-13T10:03:20;95624.00;;;14.31;69.17
71105;BME280;58760;48.716;8.962;2023-03-13T10:06:14;95616.59;;;14.40;69.74
71105;BME280;58760;48.716;8.962;2023-03-13T10:08:41;95613.63;;;14.48;69.56
71105;BME280;58760;48.716;8.962;2023-03-13T10:11:10;95614.00;;;14.51;68.10
71105;BME280;58760;48.716;8.962;2023-03-13T10:13:53;95612.75;;;14.54;69.48
71105;BME280;58760;48.716;8.962;2023-03-13T10:16:23;95592.91;;;14.68;68.49
71105;BME280;58760;48.716;8.962;2023-03-13T10:18:54;95591.94;;;14.81;67.65
71105;BME280;58760;48.716;8.962;2023-03-13T10:21:22;95586.44;;;14.94;66.98
71105;BME280;58760;48.716;8.962;2023-03-13T10:23:52;95576.81;;;15.11;66.22
71105;BME280;58760;48.716;8.962;2023-03-13T10:26:40;95579.25;;;15.42;65.33
71105;BME280;58760;48.716;8.962;2023-03-13T10:31:49;95579.25;;;15.42;65.50
71105;BME280;58760;48.716;8.962;2023-03-13T10:34:18;95572.66;;;15.75;64.50
71105;BME280;58760;48.716;8.962;2023-03-13T10:36:46;95564.34;;;15.83;62.87
71105;BME280;58760;48.716;8.962;2023-03-13T10:39:18;95566.66;;;15.91;63.80
71105;BME280;58760;48.716;8.962;2023-03-13T10:41:44;95566.44;;;15.92;62.55
71105;BME280;58760;48.716;8.962;2023-03-13T10:46:43;95552.28;;;16.27;62.50
71105;BME280;58760;48.716;8.962;2023-03-13T10:49:18;95552.53;;;16.25;62.19
71105;BME280;58760;48.716;8.962;2023-03-13T10:51:52;95546.47;;;16.41;62.67
71105;BME280;58760;48.716;8.962;2023-03-13T10:54:26;95526.06;;;16.52;60.81
71105;BME280;58760;48.716;8.962;2023-03-13T10:57:19;95524.81;;;16.78;60.17
71105;BME280;58760;48.716;8.962;2023-03-13T10:59:49;95525.75;;;16.71;58.39
71105;BME280;58760;48.716;8.962;2023-03-13T11:02:30;95530.75;;;16.68;60.25
71105;BME280;58760;48.716;8.962;2023-03-13T11:04:57;95533.44;;;16.56;60.38
71105;BME280;58760;48.716;8.962;2023-03-13T11:07:34;95539.25;;;16.65;60.86
71105;BME280;58760;48.716;8.962;2023-03-13T11:10:24;95522.94;;;16.90;60.46
71105;BME280;58760;48.716;8.962;2023-03-13T11:12:51;95521.94;;;16.67;60.18
71105;BME280;58760;48.716;8.962;2023-03-13T11:18:05;95510.13;;;16.68;59.31
71105;BME280;58760;48.716;8.962;2023-03-13T11:20:37;95502.22;;;16.50;59.96
71105;BME280;58760;48.716;8.962;2023-03-13T11:23:28;95496.38;;;16.77;60.78
71105;BME280;58760;48.716;8.962;2023-03-13T11:28:47;95467.28;;;17.08;58.73
71105;BME280;58760;48.716;8.962;2023-03-13T11:31:28;95473.09;;;17.05;58.76
71105;BME280;58760;48.716;8.962;2023-03-13T11:34:14;95460.03;;;17.37;60.48
71105;BME280;58760;48.716;8.962;2023-03-13T11:39:49;95453.19;;;17.46;58.01
71105;BME280;58760;48.716;8.962;2023-03-13T11:50:36;95419.59;;;17.89;54.94
71105;BME280;58760;48.716;8.962;2023-03-13T11:53:21;95414.72;;;18.24;55.97
71105;BME280;58760;48.716;8.962;2023-03-13T12:01:19;95391.19;;;20.75;46.64
71105;BME280;58760;48.716;8.962;2023-03-13T12:06:24;95376.00;;;21.57;47.76
71105;BME280;58760;48.716;8.962;2023-03-13T12:09:05;95370.69;;;20.69;47.27
71105;BME280;58760;48.716;8.962;2023-03-13T12:11:37;95358.19;;;21.46;47.02
71105;BME280;58760;48.716;8.962;2023-03-13T12:14:17;95381.25;;;20.86;46.03
71105;BME280;58760;48.716;8.962;2023-03-13T12:17:08;95340.91;;;21.67;44.90
71105;BME280;58760;48.716;8.962;2023-03-13T12:19:47;95330.06;;;22.02;44.60
71105;BME280;58760;48.716;8.962;2023-03-13T12:22:35;95315.78;;;21.46;45.07
71105;BME280;58760;48.716;8.962;2023-03-13T12:25:18;95311.16;;;22.07;43.62
71105;BME280;58760;48.716;8.962;2023-03-13T12:27:49;95299.56;;;22.61;42.60
71105;BME280;58760;48.716;8.962;2023-03-13T12:32:55;95283.63;;;22.00;43.33
71105;BME280;58760;48.716;8.962;2023-03-13T12:35:23;95274.16;;;22.62;42.40
71105;BME280;58760;48.716;8.962;2023-03-13T12:38:31;95263.69;;;23.33;42.16
71105;BME280;58760;48.716;8.962;2023-03-13T12:41:10;95266.09;;;23.01;41.43
71105;BME280;58760;48.716;8.962;2023-03-13T12:43:39;95253.31;;;22.08;43.27
71105;BME280;58760;48.716;8.962;2023-03-13T12:49:05;95221.44;;;24.37;38.71
71105;BME280;58760;48.716;8.962;2023-03-13T12:57:05;95215.09;;;23.18;39.25
71105;BME280;58760;48.716;8.962;2023-03-13T12:59:39;95205.91;;;22.80;40.18
71105;BME280;58760;48.716;8.962;2023-03-13T13:02:18;95207.63;;;24.10;38.88
71105;BME280;58760;48.716;8.962;2023-03-13T13:04:47;95182.97;;;24.11;37.75
71105;BME280;58760;48.716;8.962;2023-03-13T13:07:22;95184.41;;;24.27;37.90
71105;BME280;58760;48.716;8.962;2023-03-13T13:12:33;95188.34;;;23.92;38.32
71105;BME280;58760;48.716;8.962;2023-03-13T13:17:55;95166.72;;;23.87;39.01
71105;BME280;58760;48.716;8.962;2023-03-13T13:22:51;95158.69;;;22.57;41.28
71105;BME280;58760;48.716;8.962;2023-03-13T13:32:54;95135.47;;;21.48;44.12
71105;BME280;58760;48.716;8.962;2023-03-13T13:37:51;95120.50;;;20.61;45.01
71105;BME280;58760;48.716;8.962;2023-03-13T13:40:19;95112.69;;;20.45;45.54
71105;BME280;58760;48.716;8.962;2023-03-13T13:45:34;95111.88;;;21.74;42.67
71105;BME280;58760;48.716;8.962;2023-03-13T13:48:26;95100.22;;;21.83;42.24
71105;BME280;58760;48.716;8.962;2023-03-13T13:53:46;95102.94;;;22.32;40.82
71105;BME280;58760;48.716;8.962;2023-03-13T13:58:58;95076.31;;;22.50;40.99
71105;BME280;58760;48.716;8.962;2023-03-13T14:01:24;95072.47;;;22.22;42.05
71105;BME280;58760;48.716;8.962;2023-03-13T14:03:50;95069.44;;;22.62;41.96
71105;BME280;58760;48.716;8.962;2023-03-13T14:06:25;95068.84;;;23.23;41.90
71105;BME280;58760;48.716;8.962;2023-03-13T14:08:55;95058.19;;;23.98;40.78
71105;BME280;58760;48.716;8.962;2023-03-13T14:11:36;95057.91;;;22.85;39.74
71105;BME280;58760;48.716;8.962;2023-03-13T14:17:07;95050.78;;;24.03;37.83
71105;BME280;58760;48.716;8.962;2023-03-13T14:19:39;95054.72;;;24.16;37.70
71105;BME280;58760;48.716;8.962;2023-03-13T14:22:08;95035.94;;;25.57;34.74
71105;BME280;58760;48.716;8.962;2023-03-13T14:24:34;95017.47;;;27.45;31.57
71105;BME280;58760;48.716;8.962;2023-03-13T14:27:00;95017.91;;;29.36;29.26
71105;BME280;58760;48.716;8.962;2023-03-13T14:29:26;95005.63;;;29.80;28.74
71105;BME280;58760;48.716;8.962;2023-03-13T14:31:57;95003.56;;;29.69;28.35
71105;BME280;58760;48.716;8.962;2023-03-13T14:34:24;94999.78;;;28.68;29.73
71105;BME280;58760;48.716;8.962;2023-03-13T14:36:52;94993.38;;;29.11;28.13
71105;BME280;58760;48.716;8.962;2023-03-13T14:39:20;94986.50;;;29.51;27.63
71105;BME280;58760;48.716;8.962;2023-03-13T14:42:13;94980.63;;;30.32;27.27